Academy, New Jersey
Current Conditions -  °F | °C
As of 9:51 AM on Saturday 20 Dec 2014 (Local Time) from KEWR Reporting Station
Overcast Overcast  
Wind Chill: 25°   Ceiling: 2700
Heat Index: 31°   Visibility: 10mi
Dew Point: 21°   Wind: 6mph
Humidity: 67%   Direction: 10°N
Pressure: 30.32"   Gusts: NA
Location:  40.7334°N, 74.1735°W
Report Text: KEWR 201451Z 01005KT 10SM OVC027 M01/M06 A3032 RMK AO2 SLP264 T10061061 53016
Loading
Personal Weather Stations






























Interactive Weather Map New forecast layout! Learn more

10-Day Weather Forecast

Advertisements
Track Severe Weather on mobile